EPZG/IEG METAR and TAF weather

Enter ICAO airport designator
Station Type Date Time Source
EPZG METAR 2018/12/10 14:00 UTC NOAA

EPZG 101400Z 24015KT 9999 -SHRA FEW040CB BKN049 05/01 Q1008


Station Type Date Time Source
EPZG Decoded METAR 2018/12/10 14:00 UTC NOAA

Zielona Gora, Poland (EPZG) 51-56N 015-32E 192M
Dec 10, 2018 - 09:00 AM EST / 2018.12.10 1400 UTC
Wind: from the WSW (240 degrees) at 17 MPH (15 KT):0
Visibility: greater than 7 mile(s):0
Sky conditions: mostly cloudy
Weather: light rain showers; Cumulonimbus clouds observed
Temperature: 41 F (5 C)
Dew Point: 33 F (1 C)
Relative Humidity: 75%
Pressure (altimeter): 29.77 in. Hg (1008 hPa)
ob: EPZG 101400Z 24015KT 9999 -SHRA FEW040CB BKN049 05/01 Q1008
cycle: 14

Station Type Date Time Source
EPZG TAF 2012/06/28 21:49 UTC NOAA

TAF EPZG 282000Z 2821/2906 VRB02KT CAVOK
TEMPO 2823/2904 5000 BR PROB30 2900/2904 1500 BR BKN005


Example: see airport list